createdAt,value
2022-11-18T00:01:31.250Z,37.67
2022-11-18T00:03:59.237Z,46.13
2022-11-18T00:06:29.885Z,39.30
2022-11-18T00:08:59.301Z,44.53
2022-11-18T00:11:47.206Z,42.15
2022-11-18T00:14:21.301Z,41.70
2022-11-18T00:17:02.445Z,40.17
2022-11-18T00:19:32.944Z,40.95
2022-11-18T00:22:01.728Z,38.67
2022-11-18T00:24:29.663Z,40.67
2022-11-18T00:26:58.036Z,40.83
2022-11-18T00:29:28.751Z,48.13
2022-11-18T00:31:59.250Z,41.85
2022-11-18T00:34:27.301Z,43.33
2022-11-18T00:36:56.737Z,44.70
2022-11-18T00:39:25.247Z,45.00
2022-11-18T00:42:12.170Z,47.65
2022-11-18T00:44:40.217Z,46.13
2022-11-18T00:47:08.483Z,39.92
2022-11-18T00:49:36.442Z,39.95
2022-11-18T00:52:05.983Z,41.13
2022-11-18T00:54:33.892Z,40.05
2022-11-18T00:57:02.227Z,41.83
2022-11-18T00:59:30.093Z,40.75
2022-11-18T01:01:58.882Z,41.97
2022-11-18T01:04:26.805Z,32.65
2022-11-18T01:06:57.453Z,37.15
2022-11-18T01:09:25.443Z,38.15
2022-11-18T01:12:12.596Z,35.55
2022-11-18T01:14:40.572Z,36.72
2022-11-18T01:17:10.004Z,28.00
2022-11-18T01:19:37.945Z,26.27
2022-11-18T01:22:07.310Z,28.58
2022-11-18T01:24:35.473Z,26.58
2022-11-18T01:27:04.015Z,27.58
2022-11-18T01:29:32.017Z,28.80
2022-11-18T01:34:48.452Z,26.15
2022-11-18T01:37:16.923Z,23.25
2022-11-18T01:39:44.853Z,22.05
2022-11-18T01:42:16.750Z,21.77
2022-11-18T01:45:11.122Z,23.67
2022-11-18T01:47:50.482Z,19.30
2022-11-18T01:50:20.878Z,21.10
2022-11-18T01:52:51.967Z,24.48
2022-11-18T01:55:26.522Z,29.25
2022-11-18T01:58:03.960Z,22.30
2022-11-18T02:00:31.892Z,28.23
2022-11-18T02:03:02.283Z,32.22
2022-11-18T02:05:32.020Z,32.30
2022-11-18T02:08:01.982Z,31.83
2022-11-18T02:10:29.929Z,30.38
2022-11-18T02:13:00.549Z,35.33
2022-11-18T02:16:03.631Z,29.83
2022-11-18T02:18:55.167Z,29.20
2022-11-18T02:21:57.786Z,28.73
2022-11-18T02:24:53.159Z,32.15
2022-11-18T02:27:47.579Z,26.35
2022-11-18T02:30:18.879Z,29.10
2022-11-18T02:33:11.019Z,28.08
2022-11-18T02:35:56.868Z,28.23
2022-11-18T02:38:34.267Z,28.60
2022-11-18T02:41:10.796Z,29.50
2022-11-18T02:43:48.147Z,31.00
2022-11-18T02:46:39.908Z,32.90
2022-11-18T02:49:13.519Z,28.98
2022-11-18T02:51:44.040Z,27.23
2022-11-18T02:54:14.028Z,24.38
2022-11-18T02:56:43.059Z,28.88
2022-11-18T02:59:10.860Z,25.33
2022-11-18T03:01:39.855Z,25.55
2022-11-18T03:04:07.698Z,28.88
2022-11-18T03:06:40.343Z,26.10
2022-11-18T03:09:38.607Z,24.17
2022-11-18T03:12:47.727Z,26.80
2022-11-18T03:15:49.157Z,24.00
2022-11-18T03:18:42.808Z,25.33
2022-11-18T03:21:18.177Z,19.50
2022-11-18T03:24:28.467Z,18.40
2022-11-18T03:27:24.417Z,25.77
2022-11-18T03:30:21.288Z,18.35
2022-11-18T03:33:12.728Z,20.98
2022-11-18T03:35:45.949Z,20.90
2022-11-18T03:38:19.549Z,21.77
2022-11-18T03:40:53.448Z,20.42
2022-11-18T03:43:26.823Z,26.77
2022-11-18T03:46:08.416Z,20.95
2022-11-18T03:48:41.607Z,21.83
2022-11-18T03:51:14.919Z,23.65
2022-11-18T03:53:48.228Z,21.35
2022-11-18T03:56:23.387Z,22.38
2022-11-18T03:59:04.519Z,23.50
2022-11-18T04:01:41.545Z,21.35
2022-11-18T04:04:10.669Z,22.15
2022-11-18T04:06:46.448Z,19.50
2022-11-18T04:09:20.660Z,17.15
2022-11-18T04:12:03.966Z,18.58
2022-11-18T04:14:38.157Z,20.33
2022-11-18T04:17:12.377Z,22.95
2022-11-18T04:19:41.488Z,18.65
2022-11-18T04:22:11.539Z,16.60
2022-11-18T04:24:39.939Z,18.58
2022-11-18T04:27:09.429Z,23.08
2022-11-18T04:29:37.691Z,20.00
2022-11-18T04:32:07.179Z,17.73
2022-11-18T04:34:35.107Z,18.65
2022-11-18T04:37:04.035Z,24.88
2022-11-18T04:39:31.988Z,21.17
2022-11-18T04:42:00.320Z,22.50
2022-11-18T04:44:33.598Z,27.73
2022-11-18T04:49:34.108Z,24.45
2022-11-18T04:52:04.208Z,28.40
2022-11-18T04:54:32.649Z,26.70
2022-11-18T04:57:00.977Z,28.33
2022-11-18T04:59:30.329Z,28.95
2022-11-18T05:02:01.223Z,30.10
2022-11-18T05:04:32.753Z,25.70
2022-11-18T05:07:04.131Z,36.67
2022-11-18T05:09:32.758Z,28.27
2022-11-18T05:12:20.808Z,30.20
2022-11-18T05:14:50.780Z,36.28
2022-11-18T05:17:20.191Z,43.03
2022-11-18T05:19:49.096Z,45.40
2022-11-18T05:22:17.340Z,57.20
2022-11-18T05:24:45.427Z,72.85
2022-11-18T05:27:14.816Z,64.50
2022-11-18T05:29:42.822Z,63.08
2022-11-18T05:32:11.131Z,62.83
2022-11-18T05:34:40.942Z,60.75
2022-11-18T05:37:09.421Z,63.97
2022-11-18T05:39:37.360Z,62.55
2022-11-18T05:42:24.741Z,66.72
2022-11-18T05:44:57.866Z,64.53
2022-11-18T05:47:27.482Z,67.57
2022-11-18T05:49:55.456Z,68.75
2022-11-18T05:52:23.701Z,65.88
2022-11-18T05:54:52.029Z,70.65
2022-11-18T05:57:20.249Z,67.40
2022-11-18T05:59:48.220Z,70.15
2022-11-18T06:02:24.686Z,70.60
2022-11-18T06:04:59.850Z,69.55
2022-11-18T06:07:36.124Z,66.78
2022-11-18T06:10:06.802Z,82.97
2022-11-18T06:12:41.499Z,76.10
2022-11-18T06:15:18.981Z,64.57
2022-11-18T06:18:00.687Z,69.75
2022-11-18T06:20:29.649Z,64.57
2022-11-18T06:22:58.878Z,69.55
2022-11-18T06:25:27.350Z,66.75
2022-11-18T06:27:59.790Z,73.22
2022-11-18T06:30:28.199Z,75.35
2022-11-18T06:32:56.544Z,71.80
2022-11-18T06:35:24.620Z,72.75
2022-11-18T06:37:52.950Z,72.22
2022-11-18T06:40:21.014Z,78.85
2022-11-18T06:43:08.090Z,73.95
2022-11-18T06:45:36.310Z,72.22
2022-11-18T06:48:04.939Z,73.50
2022-11-18T06:50:32.939Z,72.07
2022-11-18T06:53:02.634Z,79.65
2022-11-18T06:55:30.533Z,71.45
2022-11-18T06:57:59.942Z,71.25
2022-11-18T07:00:28.129Z,74.65
2022-11-18T07:02:57.167Z,72.78
2022-11-18T07:05:25.301Z,67.47
2022-11-18T07:07:53.708Z,76.13
2022-11-18T07:10:22.263Z,74.35
2022-11-18T07:12:50.598Z,73.18
2022-11-18T07:15:18.621Z,74.38
2022-11-18T07:17:46.951Z,70.97
2022-11-18T07:20:15.282Z,83.38
2022-11-18T07:22:43.578Z,78.38
2022-11-18T07:25:11.572Z,74.30
2022-11-18T07:27:39.988Z,81.93
2022-11-18T07:30:08.487Z,82.25
2022-11-18T07:32:37.268Z,90.40
2022-11-18T07:35:05.668Z,82.40
2022-11-18T07:37:33.978Z,81.13
2022-11-18T07:40:02.188Z,79.53
2022-11-18T07:42:42.878Z,82.93
2022-11-18T07:45:27.979Z,91.25
2022-11-18T07:47:56.378Z,91.70
2022-11-18T07:50:24.349Z,80.47
2022-11-18T07:52:57.399Z,84.18
2022-11-18T07:55:30.841Z,85.22
2022-11-18T07:58:00.479Z,78.63
2022-11-18T08:00:28.833Z,81.40
2022-11-18T08:02:57.181Z,90.25
2022-11-18T08:05:25.679Z,82.97
2022-11-18T08:07:53.999Z,79.47
2022-11-18T08:10:21.979Z,86.50
2022-11-18T08:12:51.428Z,75.85
2022-11-18T08:15:19.389Z,87.82
2022-11-18T08:17:49.629Z,83.90
2022-11-18T08:20:18.189Z,95.65
2022-11-18T08:22:46.691Z,87.50
2022-11-18T08:25:15.148Z,77.10
2022-11-18T08:27:43.469Z,121.38
2022-11-18T08:30:12.173Z,83.85
2022-11-18T08:32:40.510Z,98.03
2022-11-18T08:35:11.263Z,68.50
2022-11-18T08:37:41.107Z,63.45
2022-11-18T08:40:09.956Z,82.90
2022-11-18T08:42:38.842Z,80.72
2022-11-18T08:45:10.123Z,80.05
2022-11-18T08:47:38.482Z,77.80
2022-11-18T08:50:09.638Z,74.57
2022-11-18T08:52:39.286Z,73.55
2022-11-18T08:55:08.119Z,74.90
2022-11-18T08:57:36.454Z,78.13
2022-11-18T09:00:06.051Z,73.28
2022-11-18T09:02:34.413Z,92.18
2022-11-18T09:05:02.499Z,81.45
2022-11-18T09:07:30.966Z,133.63
2022-11-18T09:09:58.959Z,84.70
2022-11-18T09:12:28.612Z,73.90
2022-11-18T09:15:13.753Z,71.45
2022-11-18T09:17:43.029Z,76.68
2022-11-18T09:20:19.928Z,78.78
2022-11-18T09:22:47.967Z,77.80
2022-11-18T09:25:16.458Z,66.03
2022-11-18T09:27:44.958Z,67.72
2022-11-18T09:30:13.814Z,67.47
2022-11-18T09:32:41.812Z,71.88
2022-11-18T09:35:10.120Z,71.22
2022-11-18T09:37:38.003Z,72.38
2022-11-18T09:40:07.049Z,63.83
2022-11-18T09:42:46.181Z,64.18
2022-11-18T09:45:25.480Z,67.95
2022-11-18T09:47:59.215Z,95.47
2022-11-18T09:53:19.630Z,75.40
2022-11-18T09:55:50.380Z,72.75
2022-11-18T09:58:34.330Z,69.63
2022-11-18T10:01:04.775Z,63.17
2022-11-18T10:03:34.152Z,62.10
2022-11-18T10:06:10.811Z,67.78
2022-11-18T10:09:11.286Z,71.05
2022-11-18T10:12:02.341Z,63.83
2022-11-18T10:14:43.089Z,58.63
2022-11-18T10:17:42.411Z,59.35
2022-11-18T10:20:42.342Z,63.40
2022-11-18T10:23:32.180Z,61.17
2022-11-18T10:26:00.141Z,60.72
2022-11-18T10:28:30.820Z,63.30
2022-11-18T10:31:11.119Z,58.80
2022-11-18T10:33:39.789Z,66.72
2022-11-18T10:36:16.810Z,68.03
2022-11-18T10:38:49.930Z,55.53
2022-11-18T10:41:22.180Z,62.25
2022-11-18T10:43:58.071Z,62.38
2022-11-18T10:46:29.052Z,58.92
2022-11-18T10:49:10.552Z,63.95
2022-11-18T10:51:44.091Z,51.83
2022-11-18T10:54:22.790Z,55.25
2022-11-18T10:57:06.489Z,49.42
2022-11-18T10:59:51.254Z,44.47
2022-11-18T11:02:25.339Z,54.30
2022-11-18T11:04:54.349Z,57.35
2022-11-18T11:07:37.369Z,53.33
2022-11-18T11:10:23.277Z,49.53
2022-11-18T11:13:14.695Z,48.83
2022-11-18T11:15:51.825Z,49.85
2022-11-18T11:18:42.125Z,46.80
2022-11-18T11:21:13.846Z,49.40
2022-11-18T11:23:44.075Z,44.08
2022-11-18T11:29:31.793Z,42.35
2022-11-18T11:32:34.164Z,38.38
2022-11-18T11:35:23.662Z,46.50
2022-11-18T11:37:57.735Z,46.30
2022-11-18T11:43:34.854Z,41.95
2022-11-18T11:46:20.769Z,46.67
2022-11-18T11:49:07.202Z,52.28
2022-11-18T11:52:02.927Z,42.53
2022-11-18T11:54:52.745Z,46.78
2022-11-18T11:57:41.516Z,43.38
2022-11-18T12:00:16.618Z,43.92
2022-11-18T12:02:47.955Z,43.25
2022-11-18T12:05:39.734Z,40.28
2022-11-18T12:08:15.349Z,47.25
2022-11-18T12:11:07.893Z,42.58
2022-11-18T12:13:39.047Z,44.80
2022-11-18T12:16:41.438Z,38.22
2022-11-18T12:19:15.300Z,42.20
2022-11-18T12:21:45.811Z,37.63
2022-11-18T12:24:35.754Z,36.15
2022-11-18T12:27:35.205Z,37.85
2022-11-18T12:30:04.508Z,41.90
2022-11-18T12:32:46.924Z,34.70
2022-11-18T12:35:48.855Z,37.80
2022-11-18T12:38:32.555Z,43.08
2022-11-18T12:41:20.505Z,31.90
2022-11-18T12:43:51.247Z,32.85
2022-11-18T12:46:44.447Z,33.95
2022-11-18T12:49:22.288Z,38.55
2022-11-18T12:51:58.207Z,28.90
2022-11-18T12:54:46.867Z,33.28
2022-11-18T12:57:33.605Z,36.65
2022-11-18T13:00:17.456Z,36.88
2022-11-18T13:02:57.016Z,37.97
2022-11-18T13:05:28.437Z,36.92
2022-11-18T13:08:19.676Z,33.95
2022-11-18T13:11:18.478Z,39.08
2022-11-18T13:13:47.378Z,37.97
2022-11-18T13:16:41.766Z,36.95
2022-11-18T13:21:56.816Z,34.67
2022-11-18T13:24:25.265Z,35.70
2022-11-18T13:26:59.756Z,38.00
2022-11-18T13:29:30.266Z,35.70
2022-11-18T13:32:10.365Z,35.53
2022-11-18T13:34:48.253Z,40.47
2022-11-18T13:37:21.511Z,34.05
2022-11-18T13:39:50.267Z,38.13
2022-11-18T13:42:30.570Z,42.17
2022-11-18T13:45:01.797Z,41.10
2022-11-18T13:47:43.137Z,49.05
2022-11-18T13:50:11.000Z,40.10
2022-11-18T13:53:03.927Z,42.35
2022-11-18T13:55:37.108Z,42.38
2022-11-18T13:58:40.205Z,43.00
2022-11-18T14:01:21.012Z,47.55
2022-11-18T14:03:55.079Z,39.58
2022-11-18T14:06:30.709Z,39.40
2022-11-18T14:09:21.289Z,46.53
2022-11-18T14:12:07.849Z,44.95
2022-11-18T14:14:41.480Z,43.35
2022-11-18T14:17:19.125Z,44.67
2022-11-18T14:20:16.750Z,39.63
2022-11-18T14:22:45.265Z,38.28
2022-11-18T14:25:20.757Z,40.35
2022-11-18T14:27:53.747Z,43.40
2022-11-18T14:33:16.326Z,41.97
2022-11-18T14:35:54.536Z,42.03
2022-11-18T14:41:44.488Z,38.58
2022-11-18T14:44:14.160Z,43.30
2022-11-18T14:46:45.600Z,44.83
2022-11-18T14:49:19.864Z,35.88
2022-11-18T14:51:50.500Z,35.30
2022-11-18T14:54:25.881Z,40.53
2022-11-18T14:57:06.312Z,38.42
2022-11-18T14:59:34.227Z,35.25
2022-11-18T15:02:03.905Z,38.03
2022-11-18T15:04:31.940Z,35.40
2022-11-18T15:07:00.207Z,38.15
2022-11-18T15:09:28.095Z,45.50
2022-11-18T15:11:56.219Z,46.42
2022-11-18T15:14:24.196Z,48.42
2022-11-18T15:16:52.527Z,41.28
2022-11-18T15:19:20.476Z,34.40
2022-11-18T15:21:48.877Z,45.30
2022-11-18T15:24:17.044Z,41.53
2022-11-18T15:26:48.437Z,42.70
2022-11-18T15:29:19.265Z,47.88
2022-11-18T15:31:48.423Z,40.05
2022-11-18T15:34:19.281Z,43.22
2022-11-18T15:36:47.695Z,41.38
2022-11-18T15:39:15.716Z,42.70
2022-11-18T15:41:44.847Z,49.08
2022-11-18T15:44:13.088Z,81.40
2022-11-18T15:46:42.066Z,47.45
2022-11-18T15:49:15.089Z,46.70
2022-11-18T15:51:43.714Z,60.13
2022-11-18T15:54:11.721Z,47.28
2022-11-18T15:56:40.181Z,44.53
2022-11-18T15:59:12.138Z,46.40
2022-11-18T16:01:43.166Z,41.50
2022-11-18T16:04:13.904Z,44.25
2022-11-18T16:06:46.238Z,45.63
2022-11-18T16:09:16.982Z,42.58
2022-11-18T16:12:04.255Z,41.78
2022-11-18T16:14:32.246Z,42.90
2022-11-18T16:17:00.505Z,62.42
2022-11-18T16:19:31.818Z,51.90
2022-11-18T16:22:00.250Z,45.28
2022-11-18T16:24:29.927Z,39.53
2022-11-18T16:26:58.098Z,45.63
2022-11-18T16:29:26.273Z,43.50
2022-11-18T16:31:55.037Z,49.58
2022-11-18T16:34:29.008Z,46.83
2022-11-18T16:37:01.422Z,53.95
2022-11-18T16:39:30.006Z,40.72
2022-11-18T16:42:07.423Z,51.55
2022-11-18T16:44:38.155Z,49.20
2022-11-18T16:47:13.818Z,51.17
2022-11-18T16:49:43.424Z,50.42
2022-11-18T16:52:11.908Z,50.88
2022-11-18T16:54:45.143Z,43.00
2022-11-18T16:57:15.729Z,50.30
2022-11-18T16:59:43.684Z,53.67
2022-11-18T17:02:13.786Z,51.28
2022-11-18T17:04:42.392Z,55.42
2022-11-18T17:07:10.633Z,54.00
2022-11-18T17:09:39.386Z,51.40
2022-11-18T17:12:08.066Z,67.15
2022-11-18T17:14:38.335Z,59.22
2022-11-18T17:17:07.592Z,62.33
2022-11-18T17:19:35.574Z,58.03
2022-11-18T17:22:03.870Z,70.72
2022-11-18T17:24:31.863Z,69.85
2022-11-18T17:27:00.200Z,74.53
2022-11-18T17:29:28.166Z,66.43
2022-11-18T17:31:56.963Z,79.22
2022-11-18T17:34:24.959Z,71.18
2022-11-18T17:36:53.196Z,80.50
2022-11-18T17:39:21.296Z,69.82
2022-11-18T17:42:08.186Z,75.80
2022-11-18T17:44:36.134Z,86.95
2022-11-18T17:47:04.538Z,72.47
2022-11-18T17:49:32.626Z,73.90
2022-11-18T17:52:01.015Z,80.43
2022-11-18T17:54:28.905Z,88.18
2022-11-18T17:56:57.212Z,86.82
2022-11-18T17:59:25.121Z,82.70
2022-11-18T18:01:59.233Z,82.82
2022-11-18T18:06:56.168Z,73.57
2022-11-18T18:09:30.042Z,92.30
2022-11-18T18:12:00.922Z,86.88
2022-11-18T18:14:28.875Z,97.20
2022-11-18T18:16:57.271Z,89.60
2022-11-18T18:19:25.693Z,90.43
2022-11-18T18:21:53.929Z,88.55
2022-11-18T18:24:22.474Z,95.00
2022-11-18T18:26:51.102Z,119.03
2022-11-18T18:29:19.339Z,129.20
2022-11-18T18:31:47.596Z,103.88
2022-11-18T18:34:15.615Z,96.05
2022-11-18T18:36:44.052Z,97.75
2022-11-18T18:39:11.933Z,75.55
2022-11-18T18:41:40.147Z,78.70
2022-11-18T18:44:08.497Z,78.72
2022-11-18T18:46:39.759Z,69.82
2022-11-18T18:49:13.827Z,71.50
2022-11-18T18:51:43.608Z,72.88
2022-11-18T18:54:16.285Z,79.40
2022-11-18T18:56:44.731Z,81.78
2022-11-18T18:59:12.714Z,69.18
2022-11-18T19:01:41.315Z,106.40
2022-11-18T19:04:13.755Z,94.55
2022-11-18T19:06:56.790Z,62.38
2022-11-18T19:09:27.336Z,63.85
2022-11-18T19:12:15.018Z,71.68
2022-11-18T19:14:43.049Z,66.57
2022-11-18T19:17:12.706Z,64.03
2022-11-18T19:20:01.093Z,69.00
2022-11-18T19:22:31.606Z,58.65
2022-11-18T19:25:00.441Z,55.85
2022-11-18T19:27:30.730Z,62.03
2022-11-18T19:29:58.802Z,68.00
2022-11-18T19:32:27.102Z,64.57
2022-11-18T19:34:55.424Z,65.18
2022-11-18T19:37:24.273Z,60.20
2022-11-18T19:39:52.214Z,62.72
2022-11-18T19:42:20.513Z,58.58
2022-11-18T19:44:48.396Z,66.00
2022-11-18T19:47:17.268Z,55.60
2022-11-18T19:49:45.264Z,55.50
2022-11-18T19:52:13.549Z,57.67
2022-11-18T19:54:41.599Z,56.03
2022-11-18T19:57:09.906Z,63.33
2022-11-18T19:59:38.091Z,65.15
2022-11-18T20:02:07.595Z,52.60
2022-11-18T20:04:36.725Z,65.85
2022-11-18T20:07:05.219Z,58.63
2022-11-18T20:09:33.425Z,59.30
2022-11-18T20:12:01.656Z,64.05
2022-11-18T20:14:29.524Z,59.65
2022-11-18T20:16:57.812Z,68.85
2022-11-18T20:19:25.844Z,68.95
2022-11-18T20:21:54.655Z,59.00
2022-11-18T20:24:22.806Z,55.58
2022-11-18T20:26:51.026Z,52.97
2022-11-18T20:29:19.240Z,56.70
2022-11-18T20:31:47.834Z,57.75
2022-11-18T20:34:15.896Z,43.88
2022-11-18T20:36:44.729Z,47.10
2022-11-18T20:39:15.839Z,53.65
2022-11-18T20:42:04.864Z,58.75
2022-11-18T20:44:32.993Z,66.53
2022-11-18T20:47:01.874Z,56.80
2022-11-18T20:49:29.953Z,55.10
2022-11-18T20:51:58.324Z,54.33
2022-11-18T20:54:26.305Z,57.63
2022-11-18T20:56:54.757Z,63.70
2022-11-18T20:59:23.603Z,50.13
2022-11-18T21:01:52.005Z,50.05
2022-11-18T21:04:19.943Z,49.45
2022-11-18T21:06:48.165Z,58.67
2022-11-18T21:09:18.008Z,52.53
2022-11-18T21:11:46.503Z,59.83
2022-11-18T21:14:23.549Z,51.42
2022-11-18T21:16:55.760Z,51.15
2022-11-18T21:19:27.102Z,55.50
2022-11-18T21:21:56.773Z,60.65
2022-11-18T21:24:29.193Z,72.63
2022-11-18T21:26:58.866Z,53.15
2022-11-18T21:29:29.084Z,51.47
2022-11-18T21:32:02.479Z,56.42
2022-11-18T21:34:30.622Z,48.22
2022-11-18T21:36:58.977Z,53.83
2022-11-18T21:39:27.785Z,50.80
2022-11-18T21:41:57.358Z,54.35
2022-11-18T21:44:28.684Z,56.28
2022-11-18T21:46:58.454Z,52.72
2022-11-18T21:49:26.395Z,57.15
2022-11-18T21:51:54.675Z,55.92
2022-11-18T21:54:23.125Z,48.97
2022-11-18T21:56:51.485Z,52.53
2022-11-18T21:59:19.698Z,49.55
2022-11-18T22:01:48.355Z,52.22
2022-11-18T22:04:36.392Z,54.95
2022-11-18T22:07:05.732Z,58.33
2022-11-18T22:09:36.701Z,41.75
2022-11-18T22:12:07.654Z,54.75
2022-11-18T22:14:36.476Z,56.25
2022-11-18T22:17:05.511Z,51.05
2022-11-18T22:19:34.198Z,60.85
2022-11-18T22:22:02.572Z,54.92
2022-11-18T22:24:30.479Z,55.55
2022-11-18T22:26:59.900Z,55.20
2022-11-18T22:29:27.932Z,45.85
2022-11-18T22:31:56.295Z,49.75
2022-11-18T22:34:24.439Z,48.05
2022-11-18T22:36:52.807Z,54.30
2022-11-18T22:39:21.203Z,52.60
2022-11-18T22:42:08.487Z,43.65
2022-11-18T22:44:36.689Z,55.95
2022-11-18T22:47:05.179Z,47.42
2022-11-18T22:49:33.370Z,51.33
2022-11-18T22:52:02.209Z,53.60
2022-11-18T22:54:39.388Z,47.92
2022-11-18T22:57:09.181Z,54.58
2022-11-18T22:59:37.717Z,63.65
2022-11-18T23:02:07.468Z,50.58
2022-11-18T23:04:35.575Z,58.75
2022-11-18T23:07:04.631Z,61.40
2022-11-18T23:09:32.878Z,56.58
2022-11-18T23:12:19.726Z,56.50
2022-11-18T23:14:47.789Z,46.05
2022-11-18T23:17:16.213Z,54.47
2022-11-18T23:19:45.055Z,54.90
2022-11-18T23:22:13.701Z,51.30
2022-11-18T23:24:41.879Z,52.88
2022-11-18T23:27:10.210Z,47.13
2022-11-18T23:29:38.730Z,56.58
2022-11-18T23:32:07.237Z,44.47
2022-11-18T23:34:35.226Z,41.15
2022-11-18T23:37:04.716Z,42.20
2022-11-18T23:39:32.766Z,35.20
2022-11-18T23:42:01.228Z,32.22
2022-11-18T23:44:47.418Z,29.85
2022-11-18T23:47:16.087Z,26.88
2022-11-18T23:49:44.127Z,26.58
2022-11-18T23:52:15.575Z,30.55
2022-11-18T23:54:43.640Z,25.92
2022-11-18T23:57:12.929Z,30.30
2022-11-18T23:59:40.927Z,27.88
